Jefferson City, MO

11:58 AM CST on December 02, 2016 (GMT -0600)
Jefferson City Memorial | | Change Station

Elev 548 ft 38.59 °N, 92.16 °W | Updated 5 minutes ago

Clear
Clear
46 °F
Feels Like 44 °F
N
5
Wind Variable Wind from Variable

Today
High -- | Low -- °F
--% Chance of Precip.
Yesterday
High -- | Low -- °F
Precip. -- in
Pressure 30.27 in
Visibility 10.0 miles
Clouds Clear
Windchill 44 °F
Dew Point 28 °F
Humidity 50%
Rainfall 0.00 in
Snow Depth Not available.
7:08 AM 4:47 PM
Waxing Crescent, 9% visible
METAR KJEF 021753Z VRB04KT 10SM CLR 08/M02 A3028 RMK AO2 SLP248 T00781022 10078 21033 58001
Pressure 30.27 in
Visibility 10.0 miles
Clouds Clear
Windchill 44 °F
Dew Point 28 °F
Humidity 50%
Rainfall 0.00 in
Snow Depth Not available.
7:08 AM 4:47 PM
Waxing Crescent, 9% visible
METAR KJEF 021753Z VRB04KT 10SM CLR 08/M02 A3028 RMK AO2 SLP248 T00781022 10078 21033 58001

10-Day Weather Forecast

Almanac

Astronomy

Dec. 02, 2016 Rise Set
Actual Time
Civil Twilight
Nautical Twilight
Astronomical Twilight
Moon
Length of Visible Light
Length of Day
Tomorrow will be .
, % of the Moon is Illuminated

Today's Extremes

State Highs State Lows

Community

WunderPhotos

Upload Photos

1,955,332 photos uploaded!

WunderBlog® & News

Nearby

Air Quality

  Air Quality AQ Index Pollutant
Not available.

Snow Depth

Station Depth Elevation

Earthquake Activity

City Distance Mag. Time & Date
Minimum magnitude displayed is 2.5.

Coastal Water Temperatures

Place Temperature

Stations

Nearby Weather Stations

Station Location Temp. Windchill Dew Point Humidity Wind Precip. Elev Updated Type
                   

Watches & Warnings

There are currently no watches in effect.